Climatologie pour Saint-Brevin les Pins
Jour • Résumé pour janvier 9, 2017 Système :  Métrique    Anglais   Mixte
« - 1 jour
+ 1 jour »
Jour Semaine Mois Année Personnalisé
  Maximum : Minimum : Moyenne :
Température sous abri : 10.1 °C 1.8 °C 7.6 °C
Point de rosée : 9.8 °C 1.5 °C 7.3 °C
Humidité : 99 % 94 % 98 %
Vitesse du vent : 24.1 km/h 0.0 km/h 4.5 km/h
Rafale : 37.0 km/h - -
Direction :- - WSW
Pression : 1032.7 hPa 1016.8 hPa -
Précipitations : 2.5 mm    
Historical Graphs
 
 
Tableau de données pour janvier 9, 2017
Heure Tempé Pt rosée Pression Vent Vitesse Rafale Humidité Taux pluie (/hr) Soleil
00:00 8.2 °C 7.9 °C 1032.7 hPa NW 1.6 km/h 4.8 km/h 98 % 0.0 mm 0 W/m2
00:05 8.3 °C 8.0 °C 1032.7 hPa NW 3.2 km/h 4.8 km/h 98 % 0.0 mm 0 W/m2
00:10 8.3 °C 8.0 °C 1032.7 hPa Calm   4.8 km/h 98 % 0.0 mm 0 W/m2
00:15 8.2 °C 7.9 °C 1032.7 hPa Calm   3.2 km/h 98 % 0.0 mm 0 W/m2
00:20 8.2 °C 7.9 °C 1032.7 hPa Calm   1.6 km/h 98 % 0.0 mm 0 W/m2
00:25 8.1 °C 7.8 °C 1032.7 hPa Calm   1.6 km/h 98 % 0.0 mm 0 W/m2
00:30 8.1 °C 7.8 °C 1032.7 hPa NW 1.6 km/h 4.8 km/h 98 % 0.0 mm 0 W/m2
00:35 8.1 °C 7.8 °C 1032.7 hPa NW 1.6 km/h 4.8 km/h 98 % 0.0 mm 0 W/m2
00:40 8.0 °C 7.7 °C 1032.7 hPa Calm   3.2 km/h 98 % 0.0 mm 0 W/m2
00:45 7.8 °C 7.5 °C 1032.7 hPa Calm   1.6 km/h 98 % 0.0 mm 0 W/m2
00:50 7.7 °C 7.4 °C 1032.7 hPa Calm     98 % 0.0 mm 0 W/m2
00:55 7.6 °C 7.3 °C 1032.7 hPa Calm   3.2 km/h 98 % 0.0 mm 0 W/m2
01:00 7.6 °C 7.3 °C 1032.4 hPa NNW 3.2 km/h 6.4 km/h 98 % 0.0 mm 0 W/m2
01:05 7.4 °C 7.1 °C 1032.4 hPa Calm   6.4 km/h 98 % 0.0 mm 0 W/m2
01:10 7.5 °C 7.2 °C 1032.4 hPa NNW 1.6 km/h 3.2 km/h 98 % 0.0 mm 0 W/m2
01:15 7.5 °C 7.2 °C 1032.4 hPa Calm   3.2 km/h 98 % 0.0 mm 0 W/m2
01:20 7.7 °C 7.4 °C 1032.4 hPa Calm   3.2 km/h 98 % 0.0 mm 0 W/m2
01:25 7.8 °C 7.5 °C 1032.1 hPa Calm   1.6 km/h 98 % 0.0 mm 0 W/m2
01:30 7.9 °C 7.6 °C 1032.1 hPa NNW 3.2 km/h 3.2 km/h 98 % 0.0 mm 0 W/m2
01:35 8.0 °C 7.7 °C 1032.1 hPa Calm   3.2 km/h 98 % 0.0 mm 0 W/m2
01:40 8.0 °C 7.7 °C 1032.1 hPa Calm   3.2 km/h 98 % 0.0 mm 0 W/m2
01:45 8.1 °C 7.8 °C 1032.1 hPa Calm   1.6 km/h 98 % 0.0 mm 0 W/m2
01:50 8.1 °C 7.8 °C 1032.1 hPa Calm   4.8 km/h 98 % 0.0 mm 0 W/m2
01:55 8.1 °C 7.8 °C 1032.1 hPa Calm   4.8 km/h 98 % 0.0 mm 0 W/m2
02:00 7.9 °C 7.6 °C 1032.1 hPa Calm   1.6 km/h 98 % 0.0 mm 0 W/m2
02:05 7.8 °C 7.5 °C 1031.7 hPa Calm   1.6 km/h 98 % 0.0 mm 0 W/m2
02:10 7.8 °C 7.5 °C 1031.7 hPa Calm     98 % 0.0 mm 0 W/m2
02:15 7.8 °C 7.5 °C 1031.7 hPa Calm   1.6 km/h 98 % 0.0 mm 0 W/m2
02:20 7.8 °C 7.5 °C 1031.7 hPa WNW 1.6 km/h 3.2 km/h 98 % 0.0 mm 0 W/m2
02:25 7.8 °C 7.5 °C 1031.7 hPa WNW 1.6 km/h 3.2 km/h 98 % 0.0 mm 0 W/m2
02:30 7.9 °C 7.7 °C 1031.7 hPa Calm   4.8 km/h 99 % 0.0 mm 0 W/m2
02:35 7.9 °C 7.8 °C 1031.7 hPa West 3.2 km/h 6.4 km/h 99 % 0.0 mm 0 W/m2
02:40 7.8 °C 7.5 °C 1031.7 hPa West 3.2 km/h 6.4 km/h 98 % 0.0 mm 0 W/m2
02:45 7.8 °C 7.5 °C 1031.4 hPa West 1.6 km/h 4.8 km/h 98 % 0.0 mm 0 W/m2
02:50 7.7 °C 7.4 °C 1031.4 hPa Calm   4.8 km/h 98 % 0.0 mm 0 W/m2
02:55 7.6 °C 7.3 °C 1031.4 hPa Calm   4.8 km/h 98 % 0.0 mm 0 W/m2
03:00 7.4 °C 7.1 °C 1031.4 hPa Calm   3.2 km/h 98 % 0.0 mm 0 W/m2
03:05 7.4 °C 7.1 °C 1031.7 hPa West 1.6 km/h 3.2 km/h 98 % 0.0 mm 0 W/m2
03:10 7.4 °C 7.3 °C 1031.7 hPa Calm   4.8 km/h 99 % 0.0 mm 0 W/m2
03:15 7.3 °C 7.0 °C 1031.4 hPa Calm   4.8 km/h 98 % 0.0 mm 0 W/m2
03:20 7.2 °C 6.9 °C 1031.4 hPa West 1.6 km/h 4.8 km/h 98 % 0.0 mm 0 W/m2
03:25 7.0 °C 6.7 °C 1031.4 hPa Calm   4.8 km/h 98 % 0.0 mm 0 W/m2
03:30 7.0 °C 6.7 °C 1031.7 hPa Calm   4.8 km/h 98 % 0.0 mm 0 W/m2
03:35 6.9 °C 6.6 °C 1031.7 hPa Calm   4.8 km/h 98 % 0.0 mm 0 W/m2
03:40 6.8 °C 6.5 °C 1031.4 hPa Calm   1.6 km/h 98 % 0.0 mm 0 W/m2
03:45 6.6 °C 6.3 °C 1031.7 hPa Calm   1.6 km/h 98 % 0.0 mm 0 W/m2
03:50 6.3 °C 6.0 °C 1031.7 hPa West 1.6 km/h 3.2 km/h 98 % 0.0 mm 0 W/m2
03:55 6.4 °C 6.1 °C 1031.4 hPa Calm   3.2 km/h 98 % 0.0 mm 0 W/m2
04:00 6.2 °C 5.9 °C 1031.4 hPa Calm   1.6 km/h 98 % 0.0 mm 0 W/m2
04:05 6.0 °C 5.7 °C 1031.4 hPa Calm   1.6 km/h 98 % 0.0 mm 0 W/m2
04:15 5.9 °C 5.7 °C 1031.0 hPa Calm     98 % 0.0 mm 0 W/m2
04:20 5.9 °C 5.8 °C 1031.0 hPa Calm   1.6 km/h 99 % 0.0 mm 0 W/m2
04:25 5.8 °C 5.5 °C 1031.0 hPa West 1.6 km/h 3.2 km/h 98 % 0.0 mm 0 W/m2
04:30 5.7 °C 5.4 °C 1031.0 hPa Calm   3.2 km/h 98 % 0.0 mm 0 W/m2
04:35 5.5 °C 5.2 °C 1031.0 hPa Calm   3.2 km/h 98 % 0.0 mm 0 W/m2
04:40 5.4 °C 5.2 °C 1031.0 hPa Calm     98 % 0.0 mm 0 W/m2
04:45 5.3 °C 5.0 °C 1031.0 hPa Calm     98 % 0.0 mm 0 W/m2
04:50 5.1 °C 4.8 °C 1030.7 hPa Calm   1.6 km/h 98 % 0.0 mm 0 W/m2
04:55 4.9 °C 4.6 °C 1030.7 hPa Calm   1.6 km/h 98 % 0.0 mm 0 W/m2
05:00 4.8 °C 4.5 °C 1030.4 hPa Calm     98 % 0.0 mm 0 W/m2
05:05 4.6 °C 4.3 °C 1030.4 hPa Calm     98 % 0.0 mm 0 W/m2
05:10 4.3 °C 4.0 °C 1030.4 hPa Calm     98 % 0.0 mm 0 W/m2
05:15 4.2 °C 3.9 °C 1030.4 hPa Calm     98 % 0.0 mm 0 W/m2
05:20 4.2 °C 3.9 °C 1030.4 hPa Calm   1.6 km/h 98 % 0.0 mm 0 W/m2
05:25 4.1 °C 3.8 °C 1030.4 hPa Calm   1.6 km/h 98 % 0.0 mm 0 W/m2
05:30 3.8 °C 3.5 °C 1030.4 hPa Calm   1.6 km/h 98 % 0.0 mm 0 W/m2
05:35 3.6 °C 3.3 °C 1030.4 hPa Calm     98 % 0.0 mm 0 W/m2
05:40 3.7 °C 3.4 °C 1030.0 hPa Calm   1.6 km/h 98 % 0.0 mm 0 W/m2
05:45 3.4 °C 3.2 °C 1030.0 hPa Calm   1.6 km/h 98 % 0.0 mm 0 W/m2
05:55 3.1 °C 2.8 °C 1030.4 hPa Calm     98 % 0.0 mm 0 W/m2
06:00 3.0 °C 2.7 °C 1030.4 hPa Calm     98 % 0.0 mm 0 W/m2
06:05 2.8 °C 2.5 °C 1030.4 hPa Calm     98 % 0.0 mm 0 W/m2
06:10 2.6 °C 2.3 °C 1030.0 hPa Calm     98 % 0.0 mm 0 W/m2
06:15 2.5 °C 2.2 °C 1030.0 hPa Calm     98 % 0.0 mm 0 W/m2
06:20 2.3 °C 2.0 °C 1030.0 hPa Calm     98 % 0.0 mm 0 W/m2
06:25 2.0 °C 1.7 °C 1030.0 hPa Calm     98 % 0.0 mm 0 W/m2
06:30 2.0 °C 1.7 °C 1030.0 hPa West 3.2 km/h 3.2 km/h 98 % 0.0 mm 0 W/m2
06:35 1.9 °C 1.7 °C 1030.0 hPa Calm   3.2 km/h 98 % 0.0 mm 0 W/m2
06:40 1.9 °C 1.6 °C 1030.0 hPa Calm   1.6 km/h 98 % 0.0 mm 0 W/m2
06:45 1.8 °C 1.6 °C 1030.0 hPa Calm     98 % 0.0 mm 0 W/m2
06:50 1.8 °C 1.5 °C 1030.0 hPa Calm     98 % 0.0 mm 0 W/m2
06:55 1.8 °C 1.6 °C 1030.0 hPa Calm     98 % 0.0 mm 0 W/m2
07:00 1.8 °C 1.6 °C 1030.4 hPa Calm     98 % 0.0 mm 0 W/m2
07:05 2.1 °C 1.8 °C 1030.0 hPa Calm     98 % 0.0 mm 0 W/m2
07:15 1.8 °C 1.5 °C 1030.0 hPa Calm     98 % 0.0 mm 0 W/m2
07:20 1.8 °C 1.5 °C 1030.0 hPa Calm     98 % 0.0 mm 0 W/m2
07:30 1.8 °C 1.5 °C 1030.0 hPa Calm     98 % 0.0 mm 0 W/m2
07:35 2.1 °C 1.8 °C 1030.0 hPa Calm     98 % 0.0 mm 0 W/m2
07:40 2.2 °C 1.9 °C 1030.0 hPa Calm     98 % 0.0 mm 0 W/m2
07:45 2.3 °C 2.2 °C 1030.0 hPa Calm     99 % 0.0 mm 0 W/m2
07:50 2.8 °C 2.7 °C 1029.7 hPa Calm     99 % 0.0 mm 0 W/m2
07:55 3.1 °C 3.0 °C 1029.7 hPa Calm     99 % 0.0 mm 0 W/m2
08:00 3.3 °C 3.1 °C 1029.7 hPa Calm   1.6 km/h 99 % 0.0 mm 0 W/m2
08:10 3.7 °C 3.6 °C 1029.3 hPa Calm   1.6 km/h 99 % 0.0 mm 0 W/m2
08:15 4.0 °C 3.9 °C 1029.3 hPa Calm     99 % 0.0 mm 0 W/m2
08:20 4.3 °C 4.2 °C 1029.3 hPa Calm   1.6 km/h 99 % 0.0 mm 0 W/m2
08:25 4.3 °C 4.1 °C 1029.3 hPa Calm   1.6 km/h 99 % 0.0 mm 0 W/m2
08:30 4.2 °C 4.1 °C 1029.7 hPa Calm     99 % 0.0 mm 0 W/m2
08:35 4.2 °C 4.1 °C 1029.3 hPa Calm     99 % 0.0 mm 0 W/m2
08:40 4.3 °C 4.1 °C 1029.3 hPa Calm     99 % 0.0 mm 0 W/m2
08:45 4.3 °C 4.2 °C 1029.3 hPa Calm     99 % 0.0 mm 0 W/m2
08:50 4.4 °C 4.2 °C 1029.7 hPa WNW 1.6 km/h 3.2 km/h 99 % 0.0 mm 0 W/m2
08:55 4.3 °C 4.2 °C 1029.7 hPa Calm   3.2 km/h 99 % 0.0 mm 0 W/m2
09:00 4.3 °C 4.2 °C 1029.7 hPa Calm   1.6 km/h 99 % 0.0 mm 0 W/m2
09:05 4.3 °C 4.1 °C 1029.7 hPa Calm   1.6 km/h 99 % 0.0 mm 5 W/m2
09:10 4.3 °C 4.1 °C 1029.7 hPa Calm   1.6 km/h 99 % 0.0 mm 7 W/m2
09:15 4.3 °C 4.2 °C 1029.7 hPa Calm   1.6 km/h 99 % 0.0 mm 11 W/m2
09:20 4.3 °C 4.1 °C 1029.7 hPa Calm   1.6 km/h 99 % 0.0 mm 14 W/m2
09:25 4.4 °C 4.2 °C 1029.7 hPa Calm   1.6 km/h 99 % 0.0 mm 18 W/m2
09:30 4.4 °C 4.2 °C 1029.7 hPa Calm   1.6 km/h 99 % 0.0 mm 19 W/m2
09:35 4.4 °C 4.2 °C 1029.7 hPa Calm   1.6 km/h 99 % 0.0 mm 14 W/m2
09:40 4.4 °C 4.3 °C 1029.7 hPa Calm   1.6 km/h 99 % 0.0 mm 21 W/m2
09:45 4.6 °C 4.4 °C 1029.7 hPa Calm     99 % 0.0 mm 44 W/m2
09:50 4.6 °C 4.4 °C 1029.7 hPa Calm     99 % 0.0 mm 62 W/m2
09:55 4.7 °C 4.6 °C 1029.3 hPa Calm   1.6 km/h 99 % 0.0 mm 60 W/m2
10:00 4.8 °C 4.6 °C 1029.3 hPa Calm   1.6 km/h 99 % 0.0 mm 72 W/m2
10:05 4.9 °C 4.7 °C 1029.3 hPa Calm   1.6 km/h 99 % 0.0 mm 54 W/m2
10:10 4.9 °C 4.8 °C 1029.3 hPa Calm   1.6 km/h 99 % 0.0 mm 60 W/m2
10:15 5.2 °C 5.0 °C 1029.3 hPa Calm   1.6 km/h 99 % 0.0 mm 63 W/m2
10:20 5.3 °C 5.2 °C 1029.3 hPa Calm   3.2 km/h 99 % 0.0 mm 81 W/m2
10:25 5.6 °C 5.4 °C 1029.7 hPa Calm   3.2 km/h 99 % 0.0 mm 65 W/m2
10:30 5.7 °C 5.5 °C 1029.3 hPa WNW 1.6 km/h 1.6 km/h 99 % 0.0 mm 62 W/m2
10:35 5.8 °C 5.6 °C 1029.3 hPa Calm   1.6 km/h 99 % 0.0 mm 93 W/m2
10:45 6.2 °C 6.0 °C 1029.0 hPa WNW 1.6 km/h 3.2 km/h 99 % 0.0 mm 88 W/m2
10:50 6.5 °C 6.4 °C 1029.0 hPa South 3.2 km/h 6.4 km/h 99 % 0.0 mm 74 W/m2
10:55 6.8 °C 6.6 °C 1029.3 hPa Calm   6.4 km/h 99 % 0.0 mm 67 W/m2
11:00 7.1 °C 6.9 °C 1029.0 hPa SSW 4.8 km/h 6.4 km/h 99 % 0.0 mm 100 W/m2
11:05 7.3 °C 7.1 °C 1029.3 hPa SSW 4.8 km/h 9.7 km/h 99 % 0.0 mm 100 W/m2
11:10 7.5 °C 7.4 °C 1029.3 hPa South 4.8 km/h 9.7 km/h 99 % 0.0 mm 116 W/m2
11:15 7.6 °C 7.4 °C 1029.3 hPa South 1.6 km/h 9.7 km/h 99 % 0.0 mm 107 W/m2
11:20 7.7 °C 7.6 °C 1029.3 hPa South 3.2 km/h 8.0 km/h 99 % 0.0 mm 123 W/m2
11:25 7.8 °C 7.6 °C 1029.3 hPa SSW 4.8 km/h 8.0 km/h 99 % 0.0 mm 102 W/m2
11:30 7.8 °C 7.7 °C 1029.3 hPa SSW 4.8 km/h 9.7 km/h 99 % 0.0 mm 186 W/m2
11:35 7.9 °C 7.7 °C 1029.3 hPa SSW 4.8 km/h 11.3 km/h 99 % 0.0 mm 120 W/m2
11:40 7.9 °C 7.7 °C 1029.3 hPa SSW 6.4 km/h 11.3 km/h 99 % 0.0 mm 107 W/m2
11:45 8.0 °C 7.9 °C 1029.3 hPa South 4.8 km/h 9.7 km/h 99 % 0.0 mm 95 W/m2
11:50 8.0 °C 7.9 °C 1029.0 hPa SW 6.4 km/h 9.7 km/h 99 % 0.0 mm 114 W/m2
11:55 8.1 °C 8.0 °C 1029.0 hPa SSW 3.2 km/h 9.7 km/h 99 % 0.0 mm 111 W/m2
12:00 8.3 °C 8.1 °C 1029.0 hPa SSW 3.2 km/h 8.0 km/h 99 % 0.0 mm 118 W/m2
12:05 8.3 °C 8.2 °C 1028.7 hPa SSW 6.4 km/h 11.3 km/h 99 % 0.0 mm 102 W/m2
12:10 8.3 °C 8.2 °C 1028.7 hPa South 1.6 km/h 11.3 km/h 99 % 0.0 mm 98 W/m2
12:15 8.3 °C 8.1 °C 1028.7 hPa SSW 4.8 km/h 9.7 km/h 99 % 0.0 mm 54 W/m2
12:20 8.2 °C 8.1 °C 1028.7 hPa SSW 4.8 km/h 11.3 km/h 99 % 0.0 mm 84 W/m2
12:25 8.3 °C 8.1 °C 1028.7 hPa South 6.4 km/h 11.3 km/h 99 % 0.0 mm 65 W/m2
12:30 8.2 °C 8.1 °C 1028.3 hPa SSW 6.4 km/h 11.3 km/h 99 % 0.0 mm 58 W/m2
12:35 8.3 °C 8.1 °C 1028.3 hPa SSW 1.6 km/h 11.3 km/h 99 % 0.0 mm 47 W/m2
12:40 8.3 °C 8.2 °C 1028.0 hPa South 8.0 km/h 9.7 km/h 99 % 0.3 mm 81 W/m2
12:45 8.4 °C 8.3 °C 1028.0 hPa SSW 8.0 km/h 12.9 km/h 99 % 0.3 mm 98 W/m2
12:50 8.5 °C 8.4 °C 1028.0 hPa SSW 3.2 km/h 12.9 km/h 99 % 0.3 mm 98 W/m2
12:55 8.6 °C 8.5 °C 1028.0 hPa WSW 3.2 km/h 8.0 km/h 99 % 0.3 mm 58 W/m2
13:00 8.6 °C 8.5 °C 1027.7 hPa WSW 1.6 km/h 8.0 km/h 99 % 0.3 mm 69 W/m2
13:05 8.6 °C 8.5 °C 1027.7 hPa SW 3.2 km/h 8.0 km/h 99 % 0.5 mm 121 W/m2
13:10 8.8 °C 8.6 °C 1027.7 hPa WSW 6.4 km/h 6.4 km/h 99 % 0.5 mm 98 W/m2
13:15 8.8 °C 8.6 °C 1027.3 hPa WSW 3.2 km/h 6.4 km/h 99 % 0.5 mm 105 W/m2
13:20 8.9 °C 8.7 °C 1027.3 hPa SSW 4.8 km/h 9.7 km/h 99 % 0.5 mm 114 W/m2
13:25 9.0 °C 8.9 °C 1027.3 hPa SSW 4.8 km/h 12.9 km/h 99 % 0.5 mm 185 W/m2
13:30 9.1 °C 9.0 °C 1027.0 hPa SSW 4.8 km/h 12.9 km/h 99 % 0.5 mm 209 W/m2
13:35 9.4 °C 9.2 °C 1027.0 hPa SW 3.2 km/h 11.3 km/h 99 % 0.5 mm 216 W/m2
13:40 9.6 °C 9.4 °C 1027.0 hPa SSW 8.0 km/h 11.3 km/h 99 % 0.3 mm 174 W/m2
13:45 9.5 °C 9.4 °C 1027.0 hPa WSW 4.8 km/h 11.3 km/h 99 % 0.3 mm 148 W/m2
13:50 9.6 °C 9.4 °C 1027.0 hPa South 6.4 km/h 9.7 km/h 99 % 0.3 mm 155 W/m2
13:55 9.5 °C 9.4 °C 1027.0 hPa WSW 6.4 km/h 11.3 km/h 99 % 0.3 mm 104 W/m2
14:00 9.4 °C 9.3 °C 1026.6 hPa SW 4.8 km/h 19.3 km/h 99 % 0.0 mm 86 W/m2
14:05 9.4 °C 9.2 °C 1026.6 hPa SSW 6.4 km/h 19.3 km/h 99 % 0.0 mm 113 W/m2
14:10 9.4 °C 9.2 °C 1026.3 hPa SW 3.2 km/h 16.1 km/h 99 % 0.0 mm 155 W/m2
14:15 9.6 °C 9.4 °C 1026.3 hPa WSW 3.2 km/h 9.7 km/h 99 % 0.0 mm 162 W/m2
14:20 9.7 °C 9.5 °C 1026.3 hPa West 3.2 km/h 9.7 km/h 99 % 0.0 mm 113 W/m2
14:25 9.7 °C 9.4 °C 1026.3 hPa WSW 4.8 km/h 9.7 km/h 98 % 0.0 mm 77 W/m2
14:30 9.7 °C 9.4 °C 1026.0 hPa WSW 11.3 km/h 12.9 km/h 98 % 0.0 mm 81 W/m2
14:35 9.7 °C 9.4 °C 1026.0 hPa WNW 4.8 km/h 12.9 km/h 98 % 0.0 mm 107 W/m2
14:40 9.7 °C 9.3 °C 1025.6 hPa WSW 11.3 km/h 14.5 km/h 97 % 0.0 mm 98 W/m2
14:45 9.8 °C 9.3 °C 1025.6 hPa WSW 6.4 km/h 16.1 km/h 97 % 0.0 mm 132 W/m2
14:50 9.8 °C 9.4 °C 1025.6 hPa WSW 8.0 km/h 16.1 km/h 97 % 0.0 mm 109 W/m2
14:55 9.8 °C 9.3 °C 1025.3 hPa WSW 9.7 km/h 16.1 km/h 97 % 0.0 mm 58 W/m2
15:00 9.8 °C 9.2 °C 1025.3 hPa West 4.8 km/h 16.1 km/h 96 % 0.0 mm 107 W/m2
15:05 9.8 °C 9.2 °C 1025.3 hPa WSW 6.4 km/h 14.5 km/h 96 % 0.0 mm 125 W/m2
15:10 9.8 °C 9.2 °C 1025.3 hPa WSW 3.2 km/h 14.5 km/h 96 % 0.0 mm 121 W/m2
15:15 9.9 °C 9.3 °C 1025.3 hPa WSW 11.3 km/h 12.9 km/h 96 % 0.0 mm 91 W/m2
15:20 9.8 °C 9.1 °C 1024.9 hPa West 1.6 km/h 14.5 km/h 95 % 0.0 mm 77 W/m2
15:25 9.9 °C 9.1 °C 1024.9 hPa West 11.3 km/h 14.5 km/h 95 % 0.0 mm 70 W/m2
15:35 9.9 °C 9.2 °C 1024.9 hPa WSW 3.2 km/h 17.7 km/h 95 % 0.0 mm 79 W/m2
15:40 9.9 °C 9.2 °C 1024.9 hPa West 8.0 km/h 17.7 km/h 95 % 0.0 mm 77 W/m2
15:45 9.9 °C 9.0 °C 1024.9 hPa West 11.3 km/h 14.5 km/h 94 % 0.0 mm 56 W/m2
15:50 9.9 °C 9.0 °C 1024.9 hPa WSW 6.4 km/h 14.5 km/h 94 % 0.0 mm 49 W/m2
15:55 9.8 °C 8.9 °C 1024.9 hPa West 6.4 km/h 14.5 km/h 94 % 0.0 mm 42 W/m2
16:00 9.8 °C 8.9 °C 1024.6 hPa WSW 4.8 km/h 12.9 km/h 94 % 0.0 mm 42 W/m2
16:05 9.7 °C 8.8 °C 1024.6 hPa WNW 3.2 km/h 12.9 km/h 94 % 0.0 mm 46 W/m2
16:10 9.7 °C 8.8 °C 1024.6 hPa WNW 9.7 km/h 12.9 km/h 94 % 0.0 mm 42 W/m2
16:15 9.7 °C 8.7 °C 1024.6 hPa NW 3.2 km/h 14.5 km/h 94 % 0.0 mm 25 W/m2
16:20 9.6 °C 8.7 °C 1024.6 hPa WSW 6.4 km/h 16.1 km/h 94 % 0.0 mm 16 W/m2
16:25 9.6 °C 8.6 °C 1024.6 hPa WNW 3.2 km/h 16.1 km/h 94 % 0.0 mm 11 W/m2
16:30 9.5 °C 8.6 °C 1024.6 hPa West 4.8 km/h 12.9 km/h 94 % 0.0 mm 9 W/m2
16:35 9.5 °C 8.6 °C 1024.6 hPa West 8.0 km/h 12.9 km/h 94 % 0.0 mm 9 W/m2
16:45 9.5 °C 8.7 °C 1024.6 hPa West 8.0 km/h 11.3 km/h 95 % 0.0 mm 12 W/m2
16:50 9.5 °C 8.7 °C 1024.3 hPa WSW 4.8 km/h 14.5 km/h 95 % 0.0 mm 9 W/m2
16:55 9.5 °C 8.9 °C 1024.3 hPa West 3.2 km/h 14.5 km/h 96 % 0.0 mm 7 W/m2
17:00 9.5 °C 8.9 °C 1024.3 hPa SW 3.2 km/h 11.3 km/h 96 % 0.0 mm 7 W/m2
17:05 9.5 °C 8.9 °C 1024.3 hPa SW 3.2 km/h 11.3 km/h 96 % 0.0 mm 5 W/m2
17:10 9.5 °C 8.9 °C 1023.9 hPa WSW 6.4 km/h 12.9 km/h 96 % 0.0 mm 5 W/m2
17:15 9.5 °C 8.9 °C 1023.9 hPa Calm   14.5 km/h 96 % 0.0 mm 5 W/m2
17:20 9.6 °C 8.9 °C 1023.9 hPa WSW 14.5 km/h 14.5 km/h 96 % 0.0 mm 5 W/m2
17:25 9.6 °C 9.0 °C 1023.9 hPa WSW 6.4 km/h 17.7 km/h 96 % 0.0 mm 0 W/m2
17:30 9.6 °C 9.0 °C 1023.6 hPa West 8.0 km/h 17.7 km/h 96 % 0.0 mm 0 W/m2
17:35 9.6 °C 9.0 °C 1023.6 hPa West 3.2 km/h 17.7 km/h 96 % 0.0 mm 0 W/m2
17:40 9.6 °C 8.9 °C 1023.6 hPa WSW 9.7 km/h 17.7 km/h 96 % 0.3 mm 0 W/m2
17:45 9.6 °C 8.9 °C 1023.6 hPa WSW 9.7 km/h 16.1 km/h 96 % 0.3 mm 0 W/m2
17:50 9.5 °C 9.0 °C 1023.2 hPa WSW 4.8 km/h 16.1 km/h 97 % 0.5 mm 0 W/m2
17:55 9.5 °C 9.0 °C 1023.2 hPa WSW 9.7 km/h 19.3 km/h 97 % 0.5 mm 0 W/m2
18:00 9.6 °C 9.1 °C 1023.2 hPa West 11.3 km/h 19.3 km/h 97 % 0.5 mm 0 W/m2
18:05 9.6 °C 9.1 °C 1022.9 hPa West 12.9 km/h 17.7 km/h 97 % 0.5 mm 0 W/m2
18:10 9.5 °C 9.0 °C 1022.9 hPa WSW 14.5 km/h 17.7 km/h 97 % 0.5 mm 0 W/m2
18:15 9.6 °C 9.1 °C 1022.9 hPa WSW 14.5 km/h 19.3 km/h 97 % 0.5 mm 0 W/m2
18:20 9.5 °C 9.0 °C 1022.6 hPa WSW 12.9 km/h 20.9 km/h 97 % 0.5 mm 0 W/m2
18:25 9.5 °C 9.0 °C 1022.6 hPa SW 16.1 km/h 22.5 km/h 97 % 0.8 mm 0 W/m2
18:30 9.5 °C 9.0 °C 1022.6 hPa SSW 11.3 km/h 22.5 km/h 97 % 0.8 mm 0 W/m2
18:35 9.4 °C 9.0 °C 1022.2 hPa SW 9.7 km/h 22.5 km/h 97 % 0.8 mm 0 W/m2
18:40 9.5 °C 9.0 °C 1022.2 hPa West 14.5 km/h 17.7 km/h 97 % 0.5 mm 0 W/m2
18:45 9.5 °C 9.0 °C 1021.9 hPa WSW 6.4 km/h 17.7 km/h 97 % 0.5 mm 0 W/m2
18:50 9.4 °C 9.0 °C 1021.9 hPa SSW 6.4 km/h 17.7 km/h 97 % 0.5 mm 0 W/m2
18:55 9.4 °C 9.0 °C 1021.9 hPa West 8.0 km/h 17.7 km/h 97 % 0.5 mm 0 W/m2
19:00 9.4 °C 9.0 °C 1021.9 hPa WSW 8.0 km/h 17.7 km/h 97 % 0.5 mm 0 W/m2
19:05 9.4 °C 9.0 °C 1021.6 hPa SW 9.7 km/h 16.1 km/h 97 % 0.5 mm 0 W/m2
19:10 9.5 °C 9.0 °C 1021.6 hPa West 3.2 km/h 16.1 km/h 97 % 0.5 mm 0 W/m2
19:15 9.5 °C 9.0 °C 1021.6 hPa WSW 17.7 km/h 17.7 km/h 97 % 0.5 mm 0 W/m2
19:20 9.5 °C 9.0 °C 1021.6 hPa WSW 14.5 km/h 19.3 km/h 97 % 0.5 mm 0 W/m2
19:25 9.4 °C 9.0 °C 1021.2 hPa WSW 12.9 km/h 19.3 km/h 97 % 0.3 mm 0 W/m2
19:30 9.4 °C 9.0 °C 1021.2 hPa SW 6.4 km/h 22.5 km/h 97 % 0.3 mm 0 W/m2
19:35 9.4 °C 9.0 °C 1021.2 hPa NW 6.4 km/h 22.5 km/h 97 % 0.3 mm 0 W/m2
19:40 9.5 °C 9.0 °C 1021.2 hPa SW 4.8 km/h 19.3 km/h 97 % 0.3 mm 0 W/m2
19:45 9.5 °C 9.2 °C 1021.2 hPa SW 14.5 km/h 22.5 km/h 98 % 0.3 mm 0 W/m2
19:50 9.6 °C 9.3 °C 1021.2 hPa SW 6.4 km/h 22.5 km/h 98 % 0.5 mm 0 W/m2
19:55 9.6 °C 9.3 °C 1020.9 hPa West 8.0 km/h 17.7 km/h 98 % 0.5 mm 0 W/m2
20:00 9.7 °C 9.4 °C 1020.9 hPa WNW 14.5 km/h 19.3 km/h 98 % 0.5 mm 0 W/m2
20:05 9.7 °C 9.4 °C 1021.2 hPa WSW 6.4 km/h 19.3 km/h 98 % 0.3 mm 0 W/m2
20:15 9.7 °C 9.2 °C 1020.9 hPa WSW 4.8 km/h 17.7 km/h 97 % 0.3 mm 0 W/m2
20:20 9.7 °C 9.2 °C 1020.5 hPa WSW 6.4 km/h 16.1 km/h 97 % 0.3 mm 0 W/m2
20:25 9.7 °C 9.3 °C 1020.9 hPa West 9.7 km/h 17.7 km/h 97 % 0.3 mm 0 W/m2
20:30 9.7 °C 9.3 °C 1020.9 hPa WSW 8.0 km/h 20.9 km/h 97 % 0.3 mm 0 W/m2
20:35 9.7 °C 9.3 °C 1020.5 hPa SW 8.0 km/h 20.9 km/h 97 % 0.3 mm 0 W/m2
20:40 9.7 °C 9.3 °C 1020.5 hPa WSW 6.4 km/h 17.7 km/h 97 % 0.3 mm 0 W/m2
20:45 9.7 °C 9.4 °C 1020.5 hPa West 9.7 km/h 17.7 km/h 98 % 0.3 mm 0 W/m2
20:50 9.7 °C 9.4 °C 1020.5 hPa WNW 9.7 km/h 22.5 km/h 98 % 0.0 mm 0 W/m2
20:55 9.7 °C 9.4 °C 1020.2 hPa WSW 17.7 km/h 22.5 km/h 98 % 0.0 mm 0 W/m2
21:00 9.7 °C 9.4 °C 1020.2 hPa West 4.8 km/h 20.9 km/h 98 % 0.0 mm 0 W/m2
21:05 9.7 °C 9.4 °C 1019.9 hPa WSW 4.8 km/h 20.9 km/h 98 % 0.0 mm 0 W/m2
21:10 9.7 °C 9.4 °C 1019.9 hPa SW 8.0 km/h 22.5 km/h 98 % 0.0 mm 0 W/m2
21:15 9.7 °C 9.4 °C 1019.9 hPa WSW 9.7 km/h 22.5 km/h 98 % 0.0 mm 0 W/m2
21:20 9.7 °C 9.4 °C 1019.9 hPa West 3.2 km/h 20.9 km/h 98 % 0.0 mm 0 W/m2
21:25 9.7 °C 9.4 °C 1019.9 hPa West 9.7 km/h 17.7 km/h 98 % 0.0 mm 0 W/m2
21:30 9.7 °C 9.3 °C 1019.5 hPa SW 6.4 km/h 19.3 km/h 97 % 0.0 mm 0 W/m2
21:35 9.7 °C 9.3 °C 1019.5 hPa WSW 4.8 km/h 19.3 km/h 97 % 0.0 mm 0 W/m2
21:40 9.7 °C 9.3 °C 1019.5 hPa West 6.4 km/h 20.9 km/h 97 % 0.3 mm 0 W/m2
21:45 9.8 °C 9.5 °C 1019.2 hPa WSW 12.9 km/h 25.7 km/h 98 % 0.3 mm 0 W/m2
21:50 9.9 °C 9.6 °C 1019.2 hPa WSW 11.3 km/h 25.7 km/h 98 % 0.3 mm 0 W/m2
21:55 9.9 °C 9.6 °C 1019.2 hPa West 9.7 km/h 25.7 km/h 98 % 0.3 mm 0 W/m2
22:00 9.9 °C 9.6 °C 1019.2 hPa SW 8.0 km/h 25.7 km/h 98 % 0.3 mm 0 W/m2
22:05 10.0 °C 9.7 °C 1018.8 hPa WSW 12.9 km/h 24.1 km/h 98 % 0.3 mm 0 W/m2
22:10 10.0 °C 9.7 °C 1018.8 hPa SW 17.7 km/h 30.6 km/h 98 % 0.3 mm 0 W/m2
22:15 10.0 °C 9.7 °C 1018.8 hPa West 20.9 km/h 32.2 km/h 98 % 0.3 mm 0 W/m2
22:20 10.0 °C 9.7 °C 1018.5 hPa WSW 24.1 km/h 32.2 km/h 98 % 0.3 mm 0 W/m2
22:25 10.1 °C 9.8 °C 1018.8 hPa West 12.9 km/h 35.4 km/h 98 % 0.3 mm 0 W/m2
22:30 10.1 °C 9.8 °C 1018.8 hPa West 20.9 km/h 35.4 km/h 98 % 0.3 mm 0 W/m2
22:35 10.1 °C 9.8 °C 1018.5 hPa West 6.4 km/h 29.0 km/h 98 % 0.3 mm 0 W/m2
22:40 10.1 °C 9.8 °C 1018.5 hPa SW 14.5 km/h 29.0 km/h 98 % 0.0 mm 0 W/m2
22:45 10.1 °C 9.8 °C 1018.2 hPa WSW 14.5 km/h 27.4 km/h 98 % 0.0 mm 0 W/m2
22:50 10.1 °C 9.8 °C 1018.2 hPa West 16.1 km/h 30.6 km/h 98 % 0.0 mm 0 W/m2
22:55 10.1 °C 9.8 °C 1018.2 hPa NNW 9.7 km/h 30.6 km/h 98 % 0.0 mm 0 W/m2
23:00 10.1 °C 9.8 °C 1018.2 hPa WNW 8.0 km/h 29.0 km/h 98 % 0.3 mm 0 W/m2
23:05 10.1 °C 9.8 °C 1018.2 hPa West 11.3 km/h 35.4 km/h 98 % 0.3 mm 0 W/m2
23:10 10.1 °C 9.8 °C 1017.8 hPa WNW 4.8 km/h 35.4 km/h 98 % 0.3 mm 0 W/m2
23:15 10.1 °C 9.8 °C 1017.8 hPa West 12.9 km/h 27.4 km/h 98 % 0.5 mm 0 W/m2
23:20 10.1 °C 9.8 °C 1017.5 hPa WSW 14.5 km/h 25.7 km/h 98 % 0.5 mm 0 W/m2
23:25 10.1 °C 9.8 °C 1017.2 hPa SW 17.7 km/h 27.4 km/h 98 % 0.5 mm 0 W/m2
23:30 10.1 °C 9.8 °C 1017.2 hPa WNW 19.3 km/h 32.2 km/h 98 % 0.5 mm 0 W/m2
23:35 10.1 °C 9.8 °C 1017.2 hPa West 14.5 km/h 32.2 km/h 98 % 0.5 mm 0 W/m2
23:40 10.1 °C 9.8 °C 1016.8 hPa West 6.4 km/h 25.7 km/h 98 % 0.5 mm 0 W/m2
23:50 10.1 °C 9.8 °C 1017.2 hPa NW 6.4 km/h 27.4 km/h 98 % 0.5 mm 0 W/m2
23:55 10.1 °C 9.8 °C 1016.8 hPa WNW 6.4 km/h 37.0 km/h 98 % 0.8 mm 0 W/m2
Avec l'autorisation de Weather Underground - 1.75 mb